Forside
METAR-TAF:

METAR-TAF

Lufthavne :

Kuwait City, Kuwait

Breddekreds: 29-13N, længdekreds: 047-59E, højde: 55 m

Aktuelle vejr

Denne rapport blev lavet for 15 minutter siden, kl. 12:00 UTC
Vind 6 kt fra nordøst
Temperatur 16°C
Fugtighed 34%
Tryk 1018 hPa
Sigt 10 km eller mere
ingen skyer under 1500m og ingen cumulonimbus

METAR: OKBK 221200Z 04006KT CAVOK 16/00 Q1018 NOSIG

Tid: 15:15 (12:15 UTC)

Vejrudsigter

Denne rapport blev lavet for 1 time og 30 minutter siden, kl. 10:45 UTC
Foreløbig gælder fra 22 på 12 UTC til 23 på 18 UTC
Vind 10 kt fra nord
Sigt: 7000 m
Midlertidig
fra 22 på 15 UTC til 23 på 02 UTC
Vind 3 kt fra varierende retninger

TAF: OKBK 221045Z 2212/2318 36010KT 7000 NSC TEMPO 2215/2302 VRB03KT

Vejrobservationer og prognoser fra mere end 4000 lufthavne (METAR og TAF).

De gule og røde prikker repræsenterer de meteorologiske stationer.

Flyt musen over at se navnet på stationen.

Så klik over at se vejr observationer og prognoser.

At skifte det kort: Klik på de grønne knapper med et sort kors for at zoome ind; på den grønne knap med en bindestreg for at zoome ud; eller på de grønne pile for tilstødende kort.


METAR-TAF: